Thursday, January 18, 2018, 11:03 PM EST
Back to Local

KILG, Wilmington New Castle Co

Location: New Castle, DE, United States Lat: 39.667
Local Time: 11:03 PM EST ( 4:03 GMT) Lon: -75.6
Time Zone: US/Eastern Elev: 78 ft

Show me the last for .
Show Decoded

2018-01-18 22:51 METAR KILG 190351Z 00000KT 10SM CLR M03/M11 A3012 RMK AO2 SLP200 T10331106 =
2018-01-18 21:51 METAR KILG 190251Z 31004KT 10SM CLR M03/M11 A3012 RMK AO2 SLP200 T10281106 53014
                 =
2018-01-18 20:51 METAR KILG 190151Z 00000KT 10SM CLR M01/M11 A3010 RMK AO2 SLP194 T10111111 =
2018-01-18 19:51 METAR KILG 190051Z 30004KT 10SM CLR M02/M11 A3009 RMK AO2 SLP191 T10171111 =
2018-01-18 18:51 METAR KILG 182351Z 32005KT 10SM CLR M02/M11 A3008 RMK AO2 SLP186 T10171111 10022
                 21017 53024 =
2018-01-18 17:51 METAR KILG 182251Z 33006KT 10SM CLR M02/M11 A3005 RMK AO2 SLP175 T10171106 =
2018-01-18 16:51 METAR KILG 182151Z 30007KT 10SM CLR 01/M11 A3002 RMK AO2 SLP166 T00061106 =
2018-01-18 15:51 METAR KILG 182051Z 31012KT 10SM CLR 02/M11 A3000 RMK AO2 SLP161 T00221106 56013
                 =
2018-01-18 14:51 METAR KILG 181951Z 29017G21KT 10SM CLR 02/M10 A3001 RMK AO2 SLP162 T00171100 =
2018-01-18 13:51 METAR KILG 181851Z 30015KT 10SM CLR 01/M10 A3001 RMK AO2 SLP162 T00111100 =
2018-01-18 12:51 METAR KILG 181751Z 30015KT 10SM CLR 00/M11 A3004 RMK AO2 SLP174 T00001106 10000
                 21100 58036 =
2018-01-18 11:51 METAR KILG 181651Z 30011KT 10SM CLR M01/M11 A3009 RMK AO2 SLP190 T10061111 =
2018-01-18 10:51 METAR KILG 181551Z 29011KT 10SM CLR M03/M12 A3012 RMK AO2 SLP201 T10281122 =
2018-01-18 09:51 METAR KILG 181451Z 29006KT 10SM CLR M04/M12 A3015 RMK AO2 SLP210 T10391122 55004
                 =
2018-01-18 08:51 METAR KILG 181351Z 29006KT 10SM CLR M07/M13 A3014 RMK AO2 SLP207 T10671133 =
2018-01-18 07:51 METAR KILG 181251Z 30008KT 10SM CLR M09/M13 A3014 RMK AO2 SLP205 T10891133 =
2018-01-18 06:51 METAR KILG 181151Z 29005KT 10SM CLR M09/M14 A3016 RMK AO2 SLP214 70005 T10941139
                 11078 21094 53008 $ =
2018-01-18 05:51 METAR KILG 181051Z AUTO 31005KT 10SM CLR M08/M14 A3015 RMK AO2 SLP211 T10831139
                 $ =
2018-01-18 04:51 METAR KILG 180951Z AUTO 31013G19KT 10SM CLR M08/M13 A3009 RMK AO2 SLP190
                 T10781133 $ =
2018-01-18 03:51 METAR KILG 180851Z AUTO 33010KT 10SM CLR M08/M13 A3014 RMK AO2 SLP206 T10781133
                 55033 $ =
2018-01-18 02:51 METAR KILG 180751Z AUTO 33012KT 10SM CLR M08/M13 A3014 RMK AO2 PRESFR SLP205
                 T10831133 $ =
2018-01-18 01:51 METAR KILG 180651Z AUTO 31009KT 10SM CLR M08/M13 A3021 RMK AO2 SLP230 T10831133
                 $ =
2018-01-18 00:51 METAR KILG 180551Z AUTO 31009KT 10SM CLR M08/M13 A3023 RMK AO2 SLP239 T10831133
                 11056 21083 58010 $ =
2018-01-17 23:51 METAR KILG 180451Z AUTO 30008KT 10SM CLR M07/M13 A3026 RMK AO2 SLP246 T10721128
                 400221078 $ =

Support USWX by starting your Amazon purchase here.